createdAt,value
2018-02-01T00:02:07.297Z,22.50
2018-02-01T00:04:34.849Z,22.40
2018-02-01T00:07:02.445Z,22.40
2018-02-01T00:09:30.031Z,22.40
2018-02-01T00:11:57.615Z,22.40
2018-02-01T00:14:25.142Z,22.40
2018-02-01T00:16:52.757Z,22.30
2018-02-01T00:19:20.317Z,22.40
2018-02-01T00:21:47.904Z,22.40
2018-02-01T00:24:15.497Z,22.40
2018-02-01T00:26:43.971Z,22.30
2018-02-01T00:29:11.563Z,22.30
2018-02-01T00:31:39.149Z,22.40
2018-02-01T00:34:06.710Z,22.40
2018-02-01T00:36:34.982Z,22.30
2018-02-01T00:39:02.550Z,22.30
2018-02-01T00:41:30.099Z,22.30
2018-02-01T00:43:57.670Z,22.30
2018-02-01T00:46:25.392Z,22.30
2018-02-01T00:48:53.101Z,22.30
2018-02-01T00:51:20.665Z,22.30
2018-02-01T00:53:49.032Z,22.30
2018-02-01T00:56:16.597Z,22.30
2018-02-01T00:58:44.177Z,22.30
2018-02-01T01:01:11.768Z,22.30
2018-02-01T01:03:41.093Z,22.30
2018-02-01T01:06:08.630Z,22.30
2018-02-01T01:08:36.198Z,22.30
2018-02-01T01:11:04.134Z,22.30
2018-02-01T01:13:31.674Z,22.30
2018-02-01T01:15:59.310Z,22.30
2018-02-01T01:18:26.846Z,22.30
2018-02-01T01:20:54.406Z,22.30
2018-02-01T01:23:21.963Z,22.30
2018-02-01T01:25:49.796Z,22.30
2018-02-01T01:28:17.457Z,22.30
2018-02-01T01:30:45.131Z,22.30
2018-02-01T01:33:13.558Z,22.30
2018-02-01T01:35:41.130Z,22.20
2018-02-01T01:38:08.916Z,22.30
2018-02-01T01:40:36.462Z,22.20
2018-02-01T01:43:04.052Z,22.20
2018-02-01T01:45:32.495Z,22.20
2018-02-01T01:48:00.068Z,22.20
2018-02-01T01:50:27.663Z,22.20
2018-02-01T01:52:56.030Z,22.20
2018-02-01T01:55:24.444Z,22.20
2018-02-01T01:57:52.018Z,22.20
2018-02-01T02:00:19.549Z,22.20
2018-02-01T02:02:47.257Z,22.20
2018-02-01T02:05:14.813Z,22.20
2018-02-01T02:07:42.530Z,22.20
2018-02-01T02:10:10.249Z,22.20
2018-02-01T02:12:37.786Z,22.20
2018-02-01T02:15:05.360Z,22.20
2018-02-01T02:17:33.078Z,22.20
2018-02-01T02:20:00.711Z,22.10
2018-02-01T02:22:30.066Z,22.10
2018-02-01T02:24:58.568Z,22.10
2018-02-01T02:27:26.166Z,22.20
2018-02-01T02:29:54.560Z,22.10
2018-02-01T02:32:24.415Z,22.10
2018-02-01T02:34:52.014Z,22.20
2018-02-01T02:37:20.436Z,22.10
2018-02-01T02:39:48.110Z,22.10
2018-02-01T02:42:15.629Z,22.10
2018-02-01T02:44:43.984Z,22.20
2018-02-01T02:47:12.356Z,22.10
2018-02-01T02:49:40.057Z,22.10
2018-02-01T02:52:08.569Z,22.10
2018-02-01T02:54:36.265Z,22.20
2018-02-01T02:57:03.836Z,22.10
2018-02-01T02:59:32.174Z,22.10
2018-02-01T03:01:59.756Z,22.10
2018-02-01T03:04:27.384Z,22.10
2018-02-01T03:06:54.946Z,22.20
2018-02-01T03:09:22.540Z,22.10
2018-02-01T03:11:50.116Z,22.10
2018-02-01T03:14:19.274Z,22.10
2018-02-01T03:16:46.852Z,22.10
2018-02-01T03:19:14.392Z,22.10
2018-02-01T03:21:41.988Z,22.20
2018-02-01T03:24:09.564Z,22.10
2018-02-01T03:26:37.924Z,22.10
2018-02-01T03:29:05.470Z,22.10
2018-02-01T03:31:33.083Z,22.10
2018-02-01T03:34:00.671Z,22.10
2018-02-01T03:36:28.208Z,22.10
2018-02-01T03:38:55.844Z,22.10
2018-02-01T03:41:24.210Z,22.10
2018-02-01T03:43:52.637Z,22.10
2018-02-01T03:46:20.217Z,22.10
2018-02-01T03:48:47.816Z,22.10
2018-02-01T03:51:16.164Z,22.10
2018-02-01T03:53:43.709Z,22.10
2018-02-01T03:56:11.289Z,22.10
2018-02-01T03:58:38.885Z,22.10
2018-02-01T04:01:06.428Z,22.10
2018-02-01T04:03:34.941Z,22.10
2018-02-01T04:06:03.162Z,22.10
2018-02-01T04:08:32.397Z,22.10
2018-02-01T04:11:00.813Z,22.10
2018-02-01T04:13:28.389Z,22.10
2018-02-01T04:15:56.079Z,22.10
2018-02-01T04:18:24.425Z,22.10
2018-02-01T04:20:52.009Z,22.10
2018-02-01T04:23:19.677Z,22.10
2018-02-01T04:25:47.245Z,22.10
2018-02-01T04:28:15.655Z,22.10
2018-02-01T04:30:43.243Z,22.10
2018-02-01T04:33:10.795Z,22.10
2018-02-01T04:35:38.379Z,22.10
2018-02-01T04:38:05.945Z,22.10
2018-02-01T04:40:34.354Z,22.10
2018-02-01T04:43:01.891Z,22.10
2018-02-01T04:45:30.235Z,22.10
2018-02-01T04:47:57.913Z,22.10
2018-02-01T04:50:25.479Z,22.10
2018-02-01T04:52:53.099Z,22.10
2018-02-01T04:55:20.649Z,22.10
2018-02-01T04:57:48.403Z,22.10
2018-02-01T05:00:16.185Z,22.10
2018-02-01T05:02:43.753Z,22.10
2018-02-01T05:05:11.301Z,22.10
2018-02-01T05:07:38.981Z,22.10
2018-02-01T05:10:06.585Z,22.10
2018-02-01T05:12:34.983Z,22.10
2018-02-01T05:15:02.523Z,22.10
2018-02-01T05:17:31.004Z,22.10
2018-02-01T05:19:59.419Z,22.10
2018-02-01T05:22:27.289Z,22.10
2018-02-01T05:24:55.753Z,22.10
2018-02-01T05:27:23.340Z,22.10
2018-02-01T05:29:50.986Z,22.10
2018-02-01T05:32:18.652Z,22.10
2018-02-01T05:34:46.182Z,22.10
2018-02-01T05:37:14.556Z,22.10
2018-02-01T05:39:42.112Z,22.10
2018-02-01T05:42:10.450Z,22.10
2018-02-01T05:44:38.292Z,22.10
2018-02-01T05:47:05.846Z,22.10
2018-02-01T05:49:33.436Z,22.10
2018-02-01T05:52:00.985Z,22.10
2018-02-01T05:54:28.590Z,22.10
2018-02-01T05:56:56.905Z,22.10
2018-02-01T05:59:24.470Z,22.10
2018-02-01T06:01:52.269Z,22.10
2018-02-01T06:04:19.824Z,22.10
2018-02-01T06:06:47.556Z,22.10
2018-02-01T06:09:15.115Z,22.10
2018-02-01T06:11:42.880Z,22.10
2018-02-01T06:14:10.408Z,22.10
2018-02-01T06:16:38.713Z,22.10
2018-02-01T06:19:06.328Z,22.10
2018-02-01T06:21:33.886Z,22.10
2018-02-01T06:24:01.484Z,22.10
2018-02-01T06:26:29.092Z,22.10
2018-02-01T06:28:56.646Z,22.10
2018-02-01T06:31:24.206Z,22.10
2018-02-01T06:33:51.765Z,22.10
2018-02-01T06:36:19.380Z,22.10
2018-02-01T06:38:47.776Z,22.10
2018-02-01T06:41:15.398Z,22.10
2018-02-01T06:43:43.756Z,22.00
2018-02-01T06:46:11.354Z,22.10
2018-02-01T06:48:39.857Z,22.10
2018-02-01T06:51:07.430Z,22.10
2018-02-01T06:53:35.298Z,22.10
2018-02-01T06:56:02.858Z,22.10
2018-02-01T06:58:30.430Z,22.10
2018-02-01T07:00:58.027Z,22.20
2018-02-01T07:03:25.826Z,22.20
2018-02-01T07:05:53.386Z,22.40
2018-02-01T07:08:21.047Z,22.40
2018-02-01T07:10:48.662Z,22.50
2018-02-01T07:13:16.268Z,22.50
2018-02-01T07:15:43.819Z,22.50
2018-02-01T07:18:12.233Z,22.50
2018-02-01T07:20:42.637Z,22.50
2018-02-01T07:23:10.186Z,22.60
2018-02-01T07:25:37.786Z,22.60
2018-02-01T07:28:05.969Z,22.50
2018-02-01T07:30:33.552Z,22.50
2018-02-01T07:33:01.858Z,22.40
2018-02-01T07:35:29.480Z,22.40
2018-02-01T07:37:57.058Z,22.40
2018-02-01T07:40:25.396Z,22.30
2018-02-01T07:42:52.999Z,22.30
2018-02-01T07:45:21.502Z,22.30
2018-02-01T07:47:49.088Z,22.30
2018-02-01T07:50:16.650Z,22.20
2018-02-01T07:52:44.242Z,22.20
2018-02-01T07:55:12.576Z,22.20
2018-02-01T07:57:40.134Z,22.20
2018-02-01T08:00:08.490Z,22.20
2018-02-01T08:02:36.040Z,22.20
2018-02-01T08:05:03.622Z,22.20
2018-02-01T08:07:31.320Z,22.30
2018-02-01T08:09:58.894Z,22.20
2018-02-01T08:12:26.460Z,22.30
2018-02-01T08:14:54.049Z,22.30
2018-02-01T08:17:21.617Z,22.30
2018-02-01T08:19:49.162Z,22.40
2018-02-01T08:22:16.758Z,22.50
2018-02-01T08:24:45.027Z,22.50
2018-02-01T08:27:12.668Z,22.40
2018-02-01T08:29:40.226Z,22.50
2018-02-01T08:32:07.894Z,22.50
2018-02-01T08:34:35.506Z,22.40
2018-02-01T08:37:03.222Z,22.40
2018-02-01T08:39:30.772Z,22.40
2018-02-01T08:41:58.574Z,22.30
2018-02-01T08:44:26.160Z,22.40
2018-02-01T08:46:54.474Z,22.40
2018-02-01T08:49:22.100Z,22.40
2018-02-01T08:51:49.664Z,22.40
2018-02-01T08:54:18.050Z,22.50
2018-02-01T08:56:46.370Z,22.50
2018-02-01T08:59:13.924Z,22.50
2018-02-01T09:01:41.479Z,22.50
2018-02-01T09:04:09.040Z,22.50
2018-02-01T09:06:37.032Z,22.50
2018-02-01T09:09:04.598Z,22.60
2018-02-01T09:11:32.198Z,22.50
2018-02-01T09:14:00.513Z,22.50
2018-02-01T09:16:28.088Z,22.50
2018-02-01T09:18:55.698Z,22.60
2018-02-01T09:21:24.100Z,22.50
2018-02-01T09:23:51.694Z,22.50
2018-02-01T09:26:19.248Z,22.50
2018-02-01T09:28:46.816Z,22.50
2018-02-01T09:31:14.386Z,22.60
2018-02-01T09:33:42.071Z,22.50
2018-02-01T09:36:10.562Z,22.70
2018-02-01T09:38:38.131Z,22.60
2018-02-01T09:41:05.732Z,22.90
2018-02-01T09:43:33.294Z,23.00
2018-02-01T09:46:00.879Z,23.00
2018-02-01T09:48:28.457Z,23.10
2018-02-01T09:50:56.830Z,23.20
2018-02-01T09:53:25.148Z,23.10
2018-02-01T09:55:52.729Z,23.10
2018-02-01T09:58:20.310Z,23.10
2018-02-01T10:00:47.948Z,23.10
2018-02-01T10:03:15.535Z,23.10
2018-02-01T10:05:43.186Z,23.00
2018-02-01T10:08:10.770Z,23.00
2018-02-01T10:10:39.134Z,23.00
2018-02-01T10:13:06.751Z,22.90
2018-02-01T10:15:34.329Z,22.90
2018-02-01T10:18:02.077Z,22.90
2018-02-01T10:20:29.657Z,22.90
2018-02-01T10:22:57.277Z,22.90
2018-02-01T10:25:24.869Z,22.90
2018-02-01T10:27:52.530Z,22.90
2018-02-01T10:30:20.123Z,22.80
2018-02-01T10:32:47.690Z,22.80
2018-02-01T10:35:15.381Z,22.80
2018-02-01T10:37:42.955Z,22.80
2018-02-01T10:40:10.497Z,22.80
2018-02-01T10:42:38.083Z,22.70
2018-02-01T10:45:05.681Z,22.70
2018-02-01T10:47:33.265Z,22.70
2018-02-01T10:50:01.633Z,22.70
2018-02-01T10:52:30.067Z,22.60
2018-02-01T10:54:57.597Z,22.60
2018-02-01T10:57:25.177Z,22.60
2018-02-01T10:59:52.727Z,22.60
2018-02-01T11:02:20.279Z,22.50
2018-02-01T11:04:47.839Z,22.50
2018-02-01T11:07:15.406Z,22.50
2018-02-01T11:09:42.981Z,22.50
2018-02-01T11:12:10.517Z,22.40
2018-02-01T11:14:38.081Z,22.50
2018-02-01T11:17:05.635Z,22.50
2018-02-01T11:19:33.215Z,22.50
2018-02-01T11:22:00.775Z,22.40
2018-02-01T11:24:28.537Z,22.40
2018-02-01T11:26:56.067Z,22.40
2018-02-01T11:29:23.615Z,22.40
2018-02-01T11:31:51.951Z,22.40
2018-02-01T11:34:19.553Z,22.40
2018-02-01T11:36:48.012Z,22.40
2018-02-01T11:39:17.059Z,22.40
2018-02-01T11:41:44.681Z,22.40
2018-02-01T11:44:13.002Z,22.40
2018-02-01T11:46:40.615Z,22.40
2018-02-01T11:49:09.092Z,22.40
2018-02-01T11:51:36.619Z,22.40
2018-02-01T11:54:04.197Z,22.40
2018-02-01T11:56:31.755Z,22.40
2018-02-01T11:58:59.336Z,22.40
2018-02-01T12:01:27.781Z,22.40
2018-02-01T12:03:55.325Z,22.40
2018-02-01T12:06:22.907Z,22.40
2018-02-01T12:08:50.576Z,22.40
2018-02-01T12:11:18.161Z,22.40
2018-02-01T12:13:46.459Z,22.40
2018-02-01T12:16:14.071Z,22.40
2018-02-01T12:18:41.690Z,22.40
2018-02-01T12:21:09.964Z,22.40
2018-02-01T12:23:37.513Z,22.40
2018-02-01T12:26:05.184Z,22.40
2018-02-01T12:28:32.729Z,22.40
2018-02-01T12:31:00.340Z,22.40
2018-02-01T12:33:27.929Z,22.40
2018-02-01T12:35:56.319Z,22.40
2018-02-01T12:38:24.778Z,22.40
2018-02-01T12:40:52.340Z,22.30
2018-02-01T12:43:19.939Z,22.30
2018-02-01T12:45:47.596Z,22.30
2018-02-01T12:48:15.160Z,22.40
2018-02-01T12:50:42.786Z,22.30
2018-02-01T12:53:10.393Z,22.30
2018-02-01T12:55:38.019Z,22.40
2018-02-01T12:58:06.358Z,22.30
2018-02-01T13:00:33.894Z,22.30
2018-02-01T13:03:01.467Z,22.30
2018-02-01T13:05:29.030Z,22.30
2018-02-01T13:07:56.610Z,22.30
2018-02-01T13:10:24.150Z,22.30
2018-02-01T13:12:51.712Z,22.30
2018-02-01T13:15:19.320Z,22.30
2018-02-01T13:17:47.776Z,22.30
2018-02-01T13:20:15.386Z,22.30
2018-02-01T13:22:43.185Z,22.30
2018-02-01T13:25:10.812Z,22.30
2018-02-01T13:27:38.380Z,22.30
2018-02-01T13:30:06.070Z,22.30
2018-02-01T13:32:33.632Z,22.30
2018-02-01T13:35:01.216Z,22.30
2018-02-01T13:37:29.590Z,22.20
2018-02-01T13:39:57.132Z,22.20
2018-02-01T13:42:24.737Z,22.30
2018-02-01T13:44:52.332Z,22.30
2018-02-01T13:47:19.910Z,22.30
2018-02-01T13:49:49.146Z,22.30
2018-02-01T13:52:17.486Z,22.30
2018-02-01T13:54:45.050Z,22.20
2018-02-01T13:57:13.386Z,22.20
2018-02-01T13:59:40.980Z,22.20
2018-02-01T14:02:08.534Z,22.20
2018-02-01T14:04:36.132Z,22.20
2018-02-01T14:07:04.432Z,22.20
2018-02-01T14:09:32.037Z,22.20
2018-02-01T14:11:59.604Z,22.20
2018-02-01T14:14:27.148Z,22.20
2018-02-01T14:16:54.728Z,22.20
2018-02-01T14:19:22.276Z,22.20
2018-02-01T14:21:49.828Z,22.20
2018-02-01T14:24:17.466Z,22.20
2018-02-01T14:26:45.021Z,22.10
2018-02-01T14:29:12.600Z,22.20
2018-02-01T14:31:40.148Z,22.10
2018-02-01T14:34:07.698Z,22.10
2018-02-01T14:36:35.284Z,22.10
2018-02-01T14:39:04.537Z,22.10
2018-02-01T14:41:32.936Z,22.10
2018-02-01T14:44:00.586Z,22.10
2018-02-01T14:46:28.118Z,22.10
2018-02-01T14:48:56.478Z,22.10
2018-02-01T14:51:24.025Z,22.10
2018-02-01T14:53:51.666Z,22.10
2018-02-01T14:56:19.318Z,22.10
2018-02-01T14:58:47.089Z,22.10
2018-02-01T15:01:14.639Z,22.00
2018-02-01T15:03:42.175Z,22.00
2018-02-01T15:06:10.559Z,22.10
2018-02-01T15:08:38.889Z,22.10
2018-02-01T15:11:06.438Z,22.00
2018-02-01T15:13:34.165Z,22.10
2018-02-01T15:16:01.733Z,22.10
2018-02-01T15:18:29.327Z,22.00
2018-02-01T15:20:56.910Z,22.00
2018-02-01T15:23:24.469Z,22.10
2018-02-01T15:25:52.137Z,22.10
2018-02-01T15:28:19.681Z,22.10
2018-02-01T15:30:48.053Z,22.10
2018-02-01T15:33:15.611Z,22.10
2018-02-01T15:35:43.183Z,22.00
2018-02-01T15:38:11.526Z,21.90
2018-02-01T15:40:39.097Z,22.00
2018-02-01T15:43:06.697Z,22.00
2018-02-01T15:45:34.249Z,22.00
2018-02-01T15:48:01.809Z,22.00
2018-02-01T15:50:29.717Z,22.00
2018-02-01T15:52:57.391Z,22.00
2018-02-01T15:55:25.087Z,22.00
2018-02-01T15:57:53.475Z,22.10
2018-02-01T16:00:21.033Z,22.00
2018-02-01T16:02:48.586Z,22.10
2018-02-01T16:05:16.358Z,22.10
2018-02-01T16:07:43.922Z,22.10
2018-02-01T16:10:11.515Z,22.20
2018-02-01T16:12:39.089Z,22.20
2018-02-01T16:15:06.673Z,22.20
2018-02-01T16:17:34.257Z,22.30
2018-02-01T16:20:02.017Z,22.30
2018-02-01T16:22:29.689Z,22.30
2018-02-01T16:24:57.227Z,22.30
2018-02-01T16:27:26.377Z,22.30
2018-02-01T16:29:53.917Z,22.30
2018-02-01T16:32:22.301Z,22.40
2018-02-01T16:34:50.639Z,22.40
2018-02-01T16:37:18.243Z,22.40
2018-02-01T16:39:45.913Z,22.40
2018-02-01T16:42:13.511Z,22.40
2018-02-01T16:44:41.139Z,22.40
2018-02-01T16:47:08.716Z,22.40
2018-02-01T16:49:36.391Z,22.40
2018-02-01T16:52:04.013Z,22.40
2018-02-01T16:54:31.589Z,22.50
2018-02-01T16:56:59.151Z,22.50
2018-02-01T16:59:26.889Z,22.50
2018-02-01T17:01:54.471Z,22.60
2018-02-01T17:04:22.023Z,22.60
2018-02-01T17:06:49.803Z,22.60
2018-02-01T17:09:17.413Z,22.70
2018-02-01T17:11:45.060Z,22.60
2018-02-01T17:14:12.631Z,22.60
2018-02-01T17:16:40.242Z,22.60
2018-02-01T17:19:07.791Z,22.80
2018-02-01T17:21:35.385Z,22.80
2018-02-01T17:24:02.927Z,22.80
2018-02-01T17:26:30.484Z,22.80
2018-02-01T17:28:58.078Z,22.80
2018-02-01T17:31:25.621Z,22.70
2018-02-01T17:33:53.206Z,22.60
2018-02-01T17:36:21.529Z,22.50
2018-02-01T17:38:49.402Z,22.50
2018-02-01T17:41:16.944Z,22.50
2018-02-01T17:43:44.526Z,22.40
2018-02-01T17:46:13.061Z,22.40
2018-02-01T17:48:40.767Z,22.40
2018-02-01T17:51:08.332Z,22.40
2018-02-01T17:53:35.926Z,22.30
2018-02-01T17:56:03.498Z,22.30
2018-02-01T17:58:31.075Z,22.30
2018-02-01T18:00:59.513Z,22.20
2018-02-01T18:03:27.049Z,22.30
2018-02-01T18:05:54.635Z,22.20
2018-02-01T18:08:22.221Z,22.20
2018-02-01T18:10:50.667Z,22.20
2018-02-01T18:13:18.263Z,22.20
2018-02-01T18:15:46.616Z,22.20
2018-02-01T18:18:14.165Z,22.20
2018-02-01T18:20:41.781Z,22.20
2018-02-01T18:23:10.235Z,22.20
2018-02-01T18:25:37.795Z,22.20
2018-02-01T18:28:05.398Z,22.20
2018-02-01T18:30:32.971Z,22.20
2018-02-01T18:33:00.546Z,22.20
2018-02-01T18:35:28.129Z,22.20
2018-02-01T18:37:56.482Z,22.30
2018-02-01T18:40:24.061Z,22.30
2018-02-01T18:42:51.688Z,22.30
2018-02-01T18:45:20.339Z,22.30
2018-02-01T18:47:48.834Z,22.40
2018-02-01T18:50:16.622Z,22.30
2018-02-01T18:52:44.287Z,22.40
2018-02-01T18:55:11.909Z,22.40
2018-02-01T18:57:39.523Z,22.40
2018-02-01T19:00:08.066Z,22.40
2018-02-01T19:02:35.747Z,22.40
2018-02-01T19:05:03.341Z,22.40
2018-02-01T19:07:30.960Z,22.40
2018-02-01T19:09:58.600Z,22.40
2018-02-01T19:12:26.958Z,22.40
2018-02-01T19:14:54.617Z,22.40
2018-02-01T19:17:22.242Z,22.40
2018-02-01T19:19:49.861Z,22.40
2018-02-01T19:22:17.414Z,22.40
2018-02-01T19:24:45.785Z,22.40
2018-02-01T19:27:14.307Z,22.40
2018-02-01T19:29:41.928Z,22.40
2018-02-01T19:32:10.954Z,22.40
2018-02-01T19:34:38.549Z,22.40
2018-02-01T19:37:06.217Z,22.40
2018-02-01T19:39:33.782Z,22.40
2018-02-01T19:42:02.154Z,22.40
2018-02-01T19:44:29.777Z,22.40
2018-02-01T19:46:57.375Z,22.40
2018-02-01T19:49:24.968Z,22.40
2018-02-01T19:51:53.466Z,22.40
2018-02-01T19:54:21.150Z,22.40
2018-02-01T19:56:48.742Z,22.40
2018-02-01T19:59:16.374Z,22.40
2018-02-01T20:01:44.012Z,22.40
2018-02-01T20:04:11.715Z,22.40
2018-02-01T20:06:39.449Z,22.40
2018-02-01T20:09:07.082Z,22.40
2018-02-01T20:11:34.707Z,22.40
2018-02-01T20:14:02.297Z,22.40
2018-02-01T20:16:29.937Z,22.40
2018-02-01T20:18:57.576Z,22.40
2018-02-01T20:21:25.232Z,22.40
2018-02-01T20:23:52.846Z,22.40
2018-02-01T20:26:22.095Z,22.40
2018-02-01T20:28:51.699Z,22.40
2018-02-01T20:31:19.402Z,22.40
2018-02-01T20:33:47.015Z,22.40
2018-02-01T20:36:14.643Z,22.40
2018-02-01T20:38:43.014Z,22.40
2018-02-01T20:41:11.663Z,22.40
2018-02-01T20:43:39.311Z,22.40
2018-02-01T20:46:06.877Z,22.40
2018-02-01T20:48:34.514Z,22.40
2018-02-01T20:51:02.130Z,22.40
2018-02-01T20:53:29.778Z,22.40
2018-02-01T20:55:58.704Z,22.40
2018-02-01T20:58:26.800Z,22.40
2018-02-01T21:00:54.393Z,22.30
2018-02-01T21:03:22.030Z,22.40
2018-02-01T21:05:49.678Z,22.40
2018-02-01T21:08:17.307Z,22.40
2018-02-01T21:10:44.974Z,22.40
2018-02-01T21:13:13.327Z,22.30
2018-02-01T21:15:40.956Z,22.30
2018-02-01T21:18:09.070Z,22.30
2018-02-01T21:20:36.660Z,22.30
2018-02-01T21:23:05.074Z,22.40
2018-02-01T21:25:32.649Z,22.30
2018-02-01T21:28:00.232Z,22.40
2018-02-01T21:30:27.830Z,22.40
2018-02-01T21:32:55.441Z,22.40
2018-02-01T21:35:23.006Z,22.40
2018-02-01T21:37:50.666Z,22.30
2018-02-01T21:40:18.224Z,22.30
2018-02-01T21:42:45.808Z,22.30
2018-02-01T21:45:14.240Z,22.30
2018-02-01T21:47:41.790Z,22.30
2018-02-01T21:50:09.380Z,22.30
2018-02-01T21:52:37.063Z,22.30
2018-02-01T21:55:04.616Z,22.30
2018-02-01T21:57:33.142Z,22.30
2018-02-01T22:00:00.680Z,22.30
2018-02-01T22:02:29.036Z,22.30
2018-02-01T22:04:57.358Z,22.30
2018-02-01T22:07:25.084Z,22.30
2018-02-01T22:09:53.450Z,22.30
2018-02-01T22:12:21.025Z,22.40
2018-02-01T22:14:49.376Z,22.30
2018-02-01T22:17:16.927Z,22.30
2018-02-01T22:19:44.506Z,22.40
2018-02-01T22:22:12.083Z,22.30
2018-02-01T22:24:40.428Z,22.40
2018-02-01T22:27:07.971Z,22.30
2018-02-01T22:29:35.590Z,22.40
2018-02-01T22:32:04.147Z,22.40
2018-02-01T22:34:31.720Z,22.40
2018-02-01T22:36:59.345Z,22.40
2018-02-01T22:39:26.919Z,22.40
2018-02-01T22:41:54.553Z,22.40
2018-02-01T22:44:22.081Z,22.40
2018-02-01T22:46:49.635Z,22.40
2018-02-01T22:49:17.217Z,22.30
2018-02-01T22:51:45.797Z,22.40
2018-02-01T22:54:13.422Z,22.40
2018-02-01T22:56:41.761Z,22.30
2018-02-01T22:59:09.323Z,22.30
2018-02-01T23:01:36.902Z,22.40
2018-02-01T23:04:04.611Z,22.30
2018-02-01T23:06:32.383Z,22.30
2018-02-01T23:08:59.949Z,22.30
2018-02-01T23:11:27.589Z,22.30
2018-02-01T23:13:55.191Z,22.30
2018-02-01T23:16:22.794Z,22.30
2018-02-01T23:18:51.115Z,22.30
2018-02-01T23:21:18.705Z,22.30
2018-02-01T23:23:46.250Z,22.30
2018-02-01T23:26:13.899Z,22.30
2018-02-01T23:28:41.480Z,22.30
2018-02-01T23:31:09.047Z,22.30
2018-02-01T23:33:36.615Z,22.30
2018-02-01T23:36:04.185Z,22.20
2018-02-01T23:38:32.499Z,22.20
2018-02-01T23:41:00.096Z,22.20
2018-02-01T23:43:27.668Z,22.20
2018-02-01T23:45:55.235Z,22.30
2018-02-01T23:48:22.809Z,22.20
2018-02-01T23:50:51.156Z,22.20
2018-02-01T23:53:18.747Z,22.20
2018-02-01T23:55:47.081Z,22.20
2018-02-01T23:58:14.627Z,22.20
